Time;durP1;ratioP1;P1;durP2;ratioP2;P2;SDS_P1;SDS_P2;PMS_P1;PMS_P2;Temp;Humidity;BMP_temperature;BMP_pressure;BME280_temperature;BME280_humidity;BME280_pressure;Samples;Min_cycle;Max_cycle;Signal;HPM_P1;HPM_P2
2023/12/30 00:00:31;;;;;;;2.05;1.40;;;10.60;99.90;;;;;;2079270;28;20033;-74
2023/12/30 00:01:31;;;;;;;3.22;1.50;;;10.60;99.90;;;;;;2086418;28;20067;-75
2023/12/30 00:02:32;;;;;;;1.88;1.30;;;10.70;99.90;;;;;;2089208;28;20028;-73
2023/12/30 00:03:32;;;;;;;2.53;1.40;;;10.70;99.90;;;;;;2080264;28;20024;-73
2023/12/30 00:04:33;;;;;;;1.63;1.52;;;10.60;99.90;;;;;;2078048;28;20110;-74
2023/12/30 00:05:33;;;;;;;1.60;1.50;;;10.60;99.90;;;;;;2070391;28;20034;-74
2023/12/30 00:06:34;;;;;;;2.80;1.40;;;10.50;99.90;;;;;;2076389;28;20060;-74
2023/12/30 00:07:35;;;;;;;2.10;1.45;;;10.50;99.90;;;;;;2079070;28;20030;-74
2023/12/30 00:08:35;;;;;;;3.08;1.60;;;10.60;99.90;;;;;;2078447;28;20040;-73
2023/12/30 00:09:37;;;;;;;2.53;1.42;;;10.50;99.90;;;;;;2076400;28;20041;-73
2023/12/30 00:10:37;;;;;;;2.45;1.40;;;10.60;99.90;;;;;;2077146;28;20491;-72
2023/12/30 00:11:38;;;;;;;1.52;1.40;;;10.50;99.90;;;;;;2077167;28;20113;-73
2023/12/30 00:12:38;;;;;;;2.50;1.60;;;10.50;99.90;;;;;;2080234;28;20115;-73
2023/12/30 00:13:39;;;;;;;2.17;1.40;;;10.50;99.90;;;;;;2076261;28;20041;-73
2023/12/30 00:14:40;;;;;;;4.15;1.70;;;10.40;99.90;;;;;;2076616;28;20044;-74
2023/12/30 00:15:40;;;;;;;2.63;1.60;;;10.40;99.90;;;;;;2081074;28;20029;-73
2023/12/30 00:16:41;;;;;;;2.05;1.30;;;10.40;99.90;;;;;;2080044;28;20029;-73
2023/12/30 00:17:42;;;;;;;1.83;1.50;;;10.30;99.90;;;;;;2078587;28;20025;-75
2023/12/30 00:18:42;;;;;;;2.22;1.60;;;10.40;99.90;;;;;;2089818;28;20028;-73
2023/12/30 00:19:45;;;;;;;1.50;1.30;;;10.40;99.90;;;;;;2088087;28;20022;-74
2023/12/30 00:20:45;;;;;;;1.65;1.50;;;10.40;99.90;;;;;;2078831;28;20053;-73
2023/12/30 00:21:46;;;;;;;2.03;1.50;;;10.40;99.90;;;;;;2081677;28;20329;-73
2023/12/30 00:22:46;;;;;;;1.80;1.40;;;10.40;99.90;;;;;;2077090;28;20025;-75
2023/12/30 00:23:47;;;;;;;1.33;1.23;;;10.40;99.90;;;;;;2069697;28;20049;-75
2023/12/30 00:24:48;;;;;;;2.00;1.48;;;10.40;99.90;;;;;;2068822;28;20486;-75
2023/12/30 00:25:48;;;;;;;2.17;1.58;;;10.40;99.90;;;;;;2068442;28;20025;-74
2023/12/30 00:26:50;;;;;;;2.72;1.50;;;10.40;99.90;;;;;;2076207;28;20061;-74
2023/12/30 00:27:51;;;;;;;1.42;1.33;;;10.40;99.90;;;;;;2068108;28;20022;-74
2023/12/30 00:28:53;;;;;;;2.78;1.50;;;10.40;99.90;;;;;;2072336;28;20022;-73
2023/12/30 00:29:54;;;;;;;1.60;1.50;;;10.40;99.90;;;;;;2088536;28;20012;-73
2023/12/30 00:30:54;;;;;;;2.50;1.50;;;10.30;99.90;;;;;;2068198;28;20479;-73
2023/12/30 00:31:55;;;;;;;1.60;1.50;;;10.30;99.90;;;;;;2072329;28;20063;-73
2023/12/30 00:32:55;;;;;;;2.92;1.60;;;10.30;99.90;;;;;;2080863;28;20021;-74
2023/12/30 00:33:58;;;;;;;3.60;1.50;;;10.30;99.90;;;;;;2076609;28;20064;-74
2023/12/30 00:34:59;;;;;;;1.60;1.50;;;10.40;99.90;;;;;;2079763;28;20365;-75
2023/12/30 00:36:03;;;;;;;2.15;1.50;;;10.40;99.90;;;;;;2076029;28;20033;-74
2023/12/30 00:37:03;;;;;;;2.47;1.45;;;10.40;99.90;;;;;;2076038;28;20025;-73
2023/12/30 00:38:04;;;;;;;2.70;1.40;;;10.30;99.90;;;;;;2067947;28;20512;-73
2023/12/30 00:39:04;;;;;;;1.50;1.40;;;10.30;99.90;;;;;;2071983;28;20464;-73
2023/12/30 00:40:05;;;;;;;1.92;1.60;;;10.30;99.90;;;;;;2076970;28;20025;-74
2023/12/30 00:41:06;;;;;;;2.80;1.50;;;10.30;99.90;;;;;;2076901;28;20033;-74
2023/12/30 00:42:07;;;;;;;2.13;1.55;;;10.30;99.90;;;;;;2084698;28;20506;-76
2023/12/30 00:43:07;;;;;;;2.03;1.40;;;10.20;99.90;;;;;;2084412;28;20036;-75
2023/12/30 00:44:08;;;;;;;2.40;1.40;;;10.30;99.90;;;;;;2076931;28;20057;-77
2023/12/30 00:45:08;;;;;;;2.17;1.60;;;10.20;99.90;;;;;;2076235;28;20035;-76
2023/12/30 00:46:09;;;;;;;1.98;1.50;;;10.20;99.90;;;;;;2076068;28;20029;-76
2023/12/30 00:47:11;;;;;;;1.90;1.42;;;10.20;99.90;;;;;;2067900;28;20572;-76
2023/12/30 00:48:12;;;;;;;1.98;1.50;;;10.20;99.90;;;;;;2068146;28;20461;-77
2023/12/30 00:49:15;;;;;;;2.47;1.40;;;10.20;99.90;;;;;;2071689;28;20025;-76
2023/12/30 00:50:16;;;;;;;3.20;1.77;;;10.10;99.90;;;;;;2078234;28;20608;-76
2023/12/30 00:51:16;;;;;;;2.40;1.50;;;10.10;99.90;;;;;;2078578;28;20048;-76
2023/12/30 00:52:17;;;;;;;1.90;1.58;;;10.10;99.90;;;;;;2088075;28;20017;-77
2023/12/30 00:53:17;;;;;;;1.65;1.50;;;10.20;99.90;;;;;;2075959;28;20123;-77
2023/12/30 00:54:18;;;;;;;1.65;1.40;;;10.20;99.90;;;;;;2076161;28;20476;-76
2023/12/30 00:55:18;;;;;;;2.28;1.60;;;10.20;99.90;;;;;;2076659;28;20045;-75
2023/12/30 00:56:19;;;;;;;2.10;1.73;;;10.20;99.90;;;;;;2068485;28;20034;-75
2023/12/30 00:57:19;;;;;;;3.22;1.50;;;10.20;99.90;;;;;;2075963;28;20036;-75
2023/12/30 00:58:20;;;;;;;2.17;1.60;;;10.20;99.90;;;;;;2070466;28;20597;-77
2023/12/30 00:59:21;;;;;;;1.73;1.60;;;10.20;99.90;;;;;;2070993;28;20038;-74
2023/12/30 01:00:22;;;;;;;2.78;1.40;;;10.20;99.90;;;;;;2076455;28;20034;-75
2023/12/30 01:01:22;;;;;;;2.28;1.40;;;10.20;99.90;;;;;;2076083;28;20033;-76
2023/12/30 01:02:23;;;;;;;2.08;1.40;;;10.10;99.90;;;;;;2076037;28;20037;-75
2023/12/30 01:03:23;;;;;;;2.03;1.40;;;10.20;99.90;;;;;;2076100;28;20087;-75
2023/12/30 01:04:24;;;;;;;1.83;1.42;;;10.20;99.90;;;;;;2079925;28;20629;-75
2023/12/30 01:05:25;;;;;;;1.77;1.45;;;10.20;99.90;;;;;;2076062;28;20030;-76
2023/12/30 01:06:25;;;;;;;2.40;1.50;;;10.30;99.90;;;;;;2084095;28;20021;-76
2023/12/30 01:07:26;;;;;;;1.50;1.40;;;10.20;99.90;;;;;;2071682;28;20045;-75
2023/12/30 01:08:26;;;;;;;4.18;1.50;;;10.20;99.90;;;;;;2067652;28;20116;-75
2023/12/30 01:09:27;;;;;;;3.22;1.52;;;10.20;99.90;;;;;;2067904;28;20026;-77
2023/12/30 01:10:28;;;;;;;2.00;1.38;;;10.20;99.90;;;;;;2063635;28;20105;-75
2023/12/30 01:11:28;;;;;;;1.50;1.33;;;10.20;99.90;;;;;;2070943;28;20025;-76
2023/12/30 01:12:29;;;;;;;2.45;1.35;;;10.10;99.90;;;;;;2084980;28;20021;-76
2023/12/30 01:13:29;;;;;;;2.28;1.40;;;10.10;99.90;;;;;;2079844;28;20025;-75
2023/12/30 01:14:30;;;;;;;3.92;1.50;;;10.00;99.90;;;;;;2075778;28;20017;-74
2023/12/30 01:15:31;;;;;;;3.85;1.35;;;10.00;99.90;;;;;;2075909;28;20025;-75
2023/12/30 01:16:34;;;;;;;2.47;1.50;;;10.00;99.90;;;;;;2071598;28;20085;-75
2023/12/30 01:17:35;;;;;;;3.05;1.48;;;10.00;99.90;;;;;;2073912;28;20048;-76
2023/12/30 01:18:36;;;;;;;4.85;1.60;;;10.00;99.90;;;;;;2079764;28;20036;-74
2023/12/30 01:19:36;;;;;;;1.73;1.30;;;10.10;99.90;;;;;;2084765;28;20032;-75
2023/12/30 01:20:37;;;;;;;1.52;1.40;;;10.20;99.90;;;;;;2084236;28;20017;-75
2023/12/30 01:21:37;;;;;;;2.90;1.48;;;10.10;99.90;;;;;;2076354;28;20498;-75
2023/12/30 01:22:38;;;;;;;2.05;1.33;;;10.20;99.90;;;;;;2076558;28;20488;-77
2023/12/30 01:23:38;;;;;;;1.55;1.45;;;10.20;99.90;;;;;;2080520;28;20029;-75
2023/12/30 01:24:39;;;;;;;1.88;1.50;;;10.20;99.90;;;;;;2083883;28;20379;-75
2023/12/30 01:25:42;;;;;;;2.35;1.50;;;10.20;99.90;;;;;;2075699;28;20108;-74
2023/12/30 01:26:42;;;;;;;1.70;1.27;;;10.20;99.90;;;;;;2075887;28;20030;-76
2023/12/30 01:27:43;;;;;;;1.40;1.30;;;10.20;99.90;;;;;;2076300;28;20047;-76
2023/12/30 01:28:43;;;;;;;1.88;1.38;;;10.20;99.90;;;;;;2076598;28;20104;-75
2023/12/30 01:29:44;;;;;;;1.38;1.27;;;10.20;99.90;;;;;;2076579;28;20034;-74
2023/12/30 01:30:44;;;;;;;2.75;1.60;;;10.10;99.90;;;;;;2076731;28;20387;-76
2023/12/30 01:31:45;;;;;;;2.50;1.50;;;10.10;99.90;;;;;;2060081;28;20054;-74
2023/12/30 01:32:46;;;;;;;2.78;1.38;;;10.10;99.90;;;;;;2070818;28;20076;-75
2023/12/30 01:33:46;;;;;;;2.08;1.42;;;10.10;99.90;;;;;;2075603;28;20029;-74
2023/12/30 01:34:46;;;;;;;1.67;1.27;;;10.10;99.90;;;;;;2068208;28;20026;-75
2023/12/30 01:35:47;;;;;;;1.48;1.30;;;10.20;99.90;;;;;;2078630;28;20029;-77
2023/12/30 01:36:48;;;;;;;1.92;1.42;;;10.20;99.90;;;;;;2071971;28;20475;-76
2023/12/30 01:37:48;;;;;;;2.28;1.38;;;10.20;99.90;;;;;;2059581;28;20034;-76
2023/12/30 01:38:49;;;;;;;2.53;1.50;;;10.20;99.90;;;;;;2067608;28;20026;-76
2023/12/30 01:39:49;;;;;;;1.80;1.38;;;10.20;99.90;;;;;;2075629;28;20036;-76
2023/12/30 01:40:50;;;;;;;2.05;1.30;;;10.20;99.90;;;;;;2067521;28;20107;-76
2023/12/30 01:41:51;;;;;;;1.27;1.10;;;10.30;99.90;;;;;;2059387;28;20042;-77
2023/12/30 01:42:52;;;;;;;1.52;1.27;;;10.40;99.90;;;;;;2075550;28;20396;-76
2023/12/30 01:43:52;;;;;;;3.45;1.33;;;10.40;99.90;;;;;;2075756;28;20025;-76
2023/12/30 01:44:53;;;;;;;1.75;1.23;;;10.40;99.90;;;;;;2068546;28;20026;-76
2023/12/30 01:45:57;;;;;;;2.25;1.20;;;10.40;99.90;;;;;;2070179;28;20284;-76
2023/12/30 01:46:59;;;;;;;2.05;1.30;;;10.40;99.90;;;;;;2067371;28;20025;-76
2023/12/30 01:48:01;;;;;;;1.30;1.20;;;10.30;99.90;;;;;;2065509;28;20556;-75
2023/12/30 01:49:02;;;;;;;1.80;1.50;;;10.40;99.90;;;;;;2067638;28;20105;-77
2023/12/30 01:50:08;;;;;;;1.35;1.10;;;10.30;99.90;;;;;;2068130;28;20069;-76
2023/12/30 01:51:09;;;;;;;3.33;1.38;;;10.30;99.90;;;;;;2068582;28;20030;-76
2023/12/30 01:52:11;;;;;;;2.00;1.50;;;10.30;99.90;;;;;;2083660;28;20565;-76
2023/12/30 01:53:13;;;;;;;2.75;1.30;;;10.30;99.90;;;;;;2084201;28;20023;-76
2023/12/30 01:54:16;;;;;;;1.65;1.20;;;10.30;99.90;;;;;;2071631;28;20082;-77
2023/12/30 01:55:18;;;;;;;1.60;1.35;;;10.30;99.90;;;;;;2075595;28;20727;-75
2023/12/30 01:56:21;;;;;;;1.33;1.15;;;10.40;99.90;;;;;;2080368;28;20017;-76
2023/12/30 01:57:21;;;;;;;1.30;1.17;;;10.30;99.90;;;;;;2071602;28;20137;-76
2023/12/30 01:58:22;;;;;;;1.80;1.30;;;10.30;99.90;;;;;;2067269;28;20042;-77
2023/12/30 01:59:23;;;;;;;1.58;1.20;;;10.40;99.90;;;;;;2055038;28;20034;-74
2023/12/30 02:00:26;;;;;;;1.42;1.33;;;10.40;99.90;;;;;;2059522;28;20034;-74
2023/12/30 02:01:28;;;;;;;2.05;1.30;;;10.40;99.90;;;;;;2059610;28;20109;-77
2023/12/30 02:02:29;;;;;;;1.23;1.10;;;10.40;99.90;;;;;;2061455;28;20373;-75
2023/12/30 02:03:29;;;;;;;3.17;1.25;;;10.50;99.90;;;;;;2067191;28;20037;-76
2023/12/30 02:04:30;;;;;;;2.95;1.38;;;10.40;99.90;;;;;;2059225;28;20034;-74
2023/12/30 02:05:31;;;;;;;1.33;1.23;;;10.40;99.90;;;;;;2059206;28;20105;-75
2023/12/30 02:06:32;;;;;;;1.48;1.20;;;10.40;99.90;;;;;;2051164;28;20023;-75
2023/12/30 02:07:32;;;;;;;2.28;1.27;;;10.40;99.90;;;;;;2069062;28;20435;-75
2023/12/30 02:08:33;;;;;;;1.95;1.30;;;10.40;99.90;;;;;;2077712;28;20033;-75
2023/12/30 02:09:35;;;;;;;1.63;1.30;;;10.40;99.90;;;;;;2083578;28;20041;-76
2023/12/30 02:10:36;;;;;;;2.97;1.10;;;10.30;99.90;;;;;;2077358;28;20029;-76
2023/12/30 02:11:37;;;;;;;2.90;1.20;;;10.30;99.90;;;;;;2068861;28;20033;-77
2023/12/30 02:12:38;;;;;;;1.75;1.13;;;10.30;99.90;;;;;;2070992;28;20156;-76
2023/12/30 02:13:42;;;;;;;3.53;1.40;;;10.20;99.90;;;;;;2067321;28;20041;-75
2023/12/30 02:14:42;;;;;;;2.20;1.20;;;10.20;99.90;;;;;;2075370;28;20068;-75
2023/12/30 02:15:43;;;;;;;2.78;1.20;;;10.20;99.90;;;;;;2085949;28;20029;-76
2023/12/30 02:16:43;;;;;;;2.08;1.20;;;10.20;99.90;;;;;;2076904;28;20467;-75
2023/12/30 02:17:44;;;;;;;2.38;1.20;;;10.10;99.90;;;;;;2075454;28;20033;-77
2023/12/30 02:18:45;;;;;;;1.10;1.00;;;10.10;99.90;;;;;;2087514;28;20119;-75
2023/12/30 02:19:46;;;;;;;1.92;1.20;;;10.00;99.90;;;;;;2078261;28;20435;-75
2023/12/30 02:20:46;;;;;;;1.42;1.13;;;9.90;99.90;;;;;;2078663;28;20021;-75
2023/12/30 02:21:47;;;;;;;1.42;1.02;;;9.80;99.90;;;;;;2084722;28;20132;-76
2023/12/30 02:22:48;;;;;;;2.35;1.10;;;9.70;99.90;;;;;;2079410;28;20063;-76
2023/12/30 02:23:55;;;;;;;1.17;1.15;;;9.70;99.90;;;;;;2070403;28;20026;-76
2023/12/30 02:24:59;;;;;;;1.20;1.10;;;9.60;99.90;;;;;;2071435;28;20519;-75
2023/12/30 02:26:00;;;;;;;0.98;0.95;;;9.60;99.90;;;;;;2075482;28;20476;-76
2023/12/30 02:27:00;;;;;;;1.95;1.00;;;9.50;99.90;;;;;;2075446;28;20124;-75
2023/12/30 02:28:01;;;;;;;1.20;1.10;;;9.50;99.90;;;;;;2076179;28;20029;-75
2023/12/30 02:29:02;;;;;;;1.55;0.90;;;9.50;99.90;;;;;;2070241;28;20022;-75
2023/12/30 02:30:03;;;;;;;1.10;1.00;;;9.50;99.90;;;;;;2075125;28;20443;-77
2023/12/30 02:31:03;;;;;;;1.60;1.00;;;9.40;99.90;;;;;;2071665;28;20029;-75
2023/12/30 02:32:04;;;;;;;6.60;1.42;;;9.40;99.90;;;;;;2076091;28;20065;-74
2023/12/30 02:33:06;;;;;;;1.20;1.10;;;9.40;99.90;;;;;;2076097;28;20036;-75
2023/12/30 02:34:06;;;;;;;1.05;0.95;;;9.40;99.90;;;;;;2087501;28;20498;-75
2023/12/30 02:35:07;;;;;;;1.63;1.13;;;9.40;99.90;;;;;;2075285;28;20127;-75
2023/12/30 02:36:08;;;;;;;1.50;1.10;;;9.40;99.90;;;;;;2075291;28;20025;-75
2023/12/30 02:37:08;;;;;;;2.58;1.10;;;9.30;99.90;;;;;;2066932;28;20033;-76
2023/12/30 02:38:09;;;;;;;1.83;1.17;;;9.30;99.90;;;;;;2067140;28;20034;-76
2023/12/30 02:39:10;;;;;;;1.35;1.02;;;9.30;99.90;;;;;;2067188;28;20018;-75
2023/12/30 02:40:11;;;;;;;1.13;1.02;;;9.30;99.90;;;;;;2075045;28;20037;-75
2023/12/30 02:41:11;;;;;;;1.30;0.95;;;9.30;99.90;;;;;;2075487;28;20022;-75
2023/12/30 02:42:12;;;;;;;1.70;1.13;;;9.30;99.90;;;;;;2083584;28;20979;-77
2023/12/30 02:43:13;;;;;;;1.27;1.17;;;9.30;99.90;;;;;;2075258;28;20048;-76
2023/12/30 02:44:18;;;;;;;1.20;1.10;;;9.30;99.90;;;;;;2075240;28;20055;-76
2023/12/30 02:45:19;;;;;;;1.40;1.20;;;9.20;99.90;;;;;;2076202;28;20557;-75
2023/12/30 02:46:19;;;;;;;1.75;1.25;;;9.30;99.90;;;;;;2075371;28;20044;-75
2023/12/30 02:47:20;;;;;;;1.85;1.20;;;9.30;99.90;;;;;;2077839;28;20143;-75
2023/12/30 02:48:20;;;;;;;3.03;1.30;;;9.20;99.90;;;;;;2068273;28;20048;-75
2023/12/30 02:49:21;;;;;;;1.60;1.30;;;9.20;99.90;;;;;;2059001;28;20559;-75
2023/12/30 02:50:21;;;;;;;2.05;1.20;;;9.20;99.90;;;;;;2062797;28;20037;-76
2023/12/30 02:51:22;;;;;;;1.35;1.20;;;9.20;99.90;;;;;;2066958;28;20461;-76
2023/12/30 02:52:23;;;;;;;1.50;1.40;;;9.20;99.90;;;;;;2075163;28;20041;-74
2023/12/30 02:53:23;;;;;;;1.60;1.20;;;9.20;99.90;;;;;;2079338;28;20020;-75
2023/12/30 02:54:24;;;;;;;1.35;1.20;;;9.10;99.90;;;;;;2075278;28;20108;-75
2023/12/30 02:55:24;;;;;;;2.13;1.17;;;9.10;99.90;;;;;;2075259;28;20072;-77
2023/12/30 02:56:26;;;;;;;2.00;1.45;;;9.10;99.90;;;;;;2075081;28;20049;-76
2023/12/30 02:57:27;;;;;;;2.35;1.25;;;9.10;99.90;;;;;;2078001;28;20033;-75
2023/12/30 02:58:28;;;;;;;2.78;1.60;;;9.00;99.90;;;;;;2076060;28;20033;-75
2023/12/30 02:59:30;;;;;;;1.92;1.20;;;9.00;99.90;;;;;;2074848;28;20546;-75
2023/12/30 03:00:30;;;;;;;1.75;1.30;;;9.00;99.90;;;;;;2075271;28;20037;-76
2023/12/30 03:01:31;;;;;;;6.80;1.92;;;9.00;99.90;;;;;;2086941;28;20561;-77
2023/12/30 03:02:32;;;;;;;2.55;1.50;;;9.00;99.90;;;;;;2075482;28;20108;-76
2023/12/30 03:03:33;;;;;;;1.98;1.33;;;9.00;99.90;;;;;;2075166;28;20033;-76
2023/12/30 03:04:33;;;;;;;3.13;1.40;;;9.00;99.90;;;;;;2078491;28;20044;-74
2023/12/30 03:05:35;;;;;;;2.13;1.38;;;9.00;99.90;;;;;;2075279;28;20117;-76
2023/12/30 03:06:35;;;;;;;4.50;1.48;;;9.10;99.90;;;;;;2071419;28;20033;-76
2023/12/30 03:07:36;;;;;;;1.45;1.35;;;9.00;99.90;;;;;;2067003;28;20071;-75
2023/12/30 03:08:37;;;;;;;2.88;1.27;;;9.00;99.90;;;;;;2066945;28;20061;-76
2023/12/30 03:09:37;;;;;;;2.00;1.40;;;9.00;99.90;;;;;;2075166;28;20132;-77
2023/12/30 03:10:38;;;;;;;3.70;1.45;;;9.00;99.90;;;;;;2068744;28;20018;-76
2023/12/30 03:11:39;;;;;;;2.30;1.40;;;9.00;99.90;;;;;;2066803;28;20021;-76
2023/12/30 03:12:39;;;;;;;3.42;1.40;;;9.00;99.90;;;;;;2075155;28;20262;-75
2023/12/30 03:13:41;;;;;;;5.10;1.40;;;9.00;99.90;;;;;;2075153;28;20519;-75
2023/12/30 03:14:42;;;;;;;2.72;1.42;;;9.10;99.90;;;;;;2083521;28;20059;-76
2023/12/30 03:15:42;;;;;;;2.55;1.30;;;9.00;99.90;;;;;;2083611;28;20033;-76
2023/12/30 03:16:43;;;;;;;2.53;1.40;;;9.00;99.90;;;;;;2078566;28;20044;-76
2023/12/30 03:17:43;;;;;;;1.70;1.40;;;9.00;99.90;;;;;;2074870;28;20041;-76
2023/12/30 03:18:45;;;;;;;2.38;1.50;;;9.00;99.90;;;;;;2083204;28;20051;-75
2023/12/30 03:19:45;;;;;;;2.80;1.83;;;9.00;99.90;;;;;;2087558;28;20033;-75
2023/12/30 03:20:46;;;;;;;2.88;1.50;;;9.00;99.90;;;;;;2075785;28;20033;-76
2023/12/30 03:21:47;;;;;;;4.13;1.50;;;9.00;99.90;;;;;;2076091;28;20055;-75
2023/12/30 03:22:47;;;;;;;1.73;1.30;;;9.00;99.90;;;;;;2075858;28;20246;-75
2023/12/30 03:23:48;;;;;;;2.72;1.50;;;9.00;99.90;;;;;;2076145;28;20036;-83
2023/12/30 03:24:49;;;;;;;5.10;1.50;;;9.00;99.90;;;;;;2086504;28;20024;-82
2023/12/30 03:25:50;;;;;;;2.08;1.40;;;9.00;99.90;;;;;;2078434;28;20107;-81
2023/12/30 03:26:51;;;;;;;1.73;1.50;;;9.00;99.90;;;;;;2078747;28;20030;-81
2023/12/30 03:27:51;;;;;;;4.13;1.52;;;9.00;99.90;;;;;;2076814;28;20573;-81
2023/12/30 03:28:52;;;;;;;1.58;1.38;;;9.00;99.90;;;;;;2077729;28;20030;-80
2023/12/30 03:29:53;;;;;;;4.35;1.67;;;9.00;99.90;;;;;;2080747;28;20091;-80
2023/12/30 03:30:54;;;;;;;3.67;1.45;;;8.90;99.90;;;;;;2076000;28;20035;-80
2023/12/30 03:31:55;;;;;;;7.22;2.00;;;9.00;99.90;;;;;;2081180;28;20051;-81
2023/12/30 03:32:55;;;;;;;2.78;1.45;;;9.00;99.90;;;;;;2070490;28;20026;-81
2023/12/30 03:33:56;;;;;;;2.45;1.50;;;9.00;99.90;;;;;;2076904;28;20633;-81
2023/12/30 03:34:57;;;;;;;1.73;1.40;;;9.00;99.90;;;;;;2068465;28;20081;-80
2023/12/30 03:35:57;;;;;;;2.15;1.40;;;9.00;99.90;;;;;;2078343;28;20021;-80
2023/12/30 03:36:58;;;;;;;1.67;1.50;;;9.00;99.90;;;;;;2087463;28;20032;-81
2023/12/30 03:37:58;;;;;;;2.30;1.50;;;9.00;99.90;;;;;;2078352;28;20025;-81
2023/12/30 03:38:59;;;;;;;2.60;1.60;;;9.00;99.90;;;;;;2072175;28;20022;-81
2023/12/30 03:39:59;;;;;;;3.65;1.60;;;9.10;99.90;;;;;;2079025;28;20018;-80
2023/12/30 03:41:00;;;;;;;1.98;1.48;;;9.10;99.90;;;;;;2068063;28;20034;-80
2023/12/30 03:42:00;;;;;;;1.85;1.63;;;9.10;99.90;;;;;;2071592;28;20018;-80
2023/12/30 03:43:01;;;;;;;2.80;1.50;;;9.10;99.90;;;;;;2078640;28;20079;-79
2023/12/30 03:44:02;;;;;;;2.63;1.73;;;9.10;99.90;;;;;;2090648;28;20111;-79
2023/12/30 03:45:05;;;;;;;3.25;1.45;;;9.10;99.90;;;;;;2089097;28;20433;-82
2023/12/30 03:46:05;;;;;;;3.15;1.73;;;9.20;99.90;;;;;;2077469;28;20044;-79
2023/12/30 03:47:06;;;;;;;2.20;1.50;;;9.20;99.90;;;;;;2068813;28;20030;-81
2023/12/30 03:48:08;;;;;;;1.65;1.50;;;9.30;99.90;;;;;;2069299;28;20033;-80
2023/12/30 03:49:09;;;;;;;2.67;1.67;;;9.20;99.90;;;;;;2080105;28;20962;-80
2023/12/30 03:50:09;;;;;;;3.38;1.77;;;9.20;99.90;;;;;;2077031;28;20025;-78
2023/12/30 03:51:10;;;;;;;2.88;1.63;;;9.20;99.90;;;;;;2075802;28;20491;-78
2023/12/30 03:52:11;;;;;;;4.70;1.40;;;9.20;99.90;;;;;;2079670;28;20089;-78
2023/12/30 03:53:11;;;;;;;1.63;1.38;;;9.20;99.90;;;;;;2079391;28;20032;-80
2023/12/30 03:54:12;;;;;;;4.28;1.67;;;9.20;99.90;;;;;;2076396;28;20033;-81
2023/12/30 03:55:13;;;;;;;1.92;1.50;;;9.20;99.90;;;;;;2076470;28;20032;-81
2023/12/30 03:56:13;;;;;;;4.05;1.80;;;9.20;99.90;;;;;;2079364;28;20132;-79
2023/12/30 03:57:14;;;;;;;2.08;1.40;;;9.20;99.90;;;;;;2072071;28;20045;-82
2023/12/30 03:58:14;;;;;;;2.45;1.50;;;9.20;99.90;;;;;;2078920;28;20033;-80
2023/12/30 03:59:15;;;;;;;6.15;1.80;;;9.20;99.90;;;;;;2083265;28;20112;-81
2023/12/30 04:00:16;;;;;;;2.90;1.60;;;9.20;99.90;;;;;;2081878;28;20043;-80
2023/12/30 04:01:16;;;;;;;3.75;1.50;;;9.20;99.90;;;;;;2080390;28;20025;-81
2023/12/30 04:02:20;;;;;;;3.13;1.60;;;9.20;99.90;;;;;;2090554;28;20028;-80
2023/12/30 04:03:22;;;;;;;3.38;1.52;;;9.20;99.90;;;;;;2082344;28;20112;-79
2023/12/30 04:04:22;;;;;;;4.05;1.70;;;9.30;99.90;;;;;;2088203;28;20033;-80
2023/12/30 04:05:23;;;;;;;4.25;1.52;;;9.30;99.90;;;;;;2083260;28;20032;-82
2023/12/30 04:06:23;;;;;;;3.35;1.60;;;9.30;99.90;;;;;;2077604;28;20029;-80
2023/12/30 04:07:24;;;;;;;3.35;1.65;;;9.30;99.90;;;;;;2073884;28;20438;-78
2023/12/30 04:08:25;;;;;;;3.47;1.65;;;9.30;99.90;;;;;;2077835;28;20064;-80
2023/12/30 04:09:25;;;;;;;2.03;1.60;;;9.30;99.90;;;;;;2082988;28;20083;-80
2023/12/30 04:10:26;;;;;;;2.00;1.52;;;9.30;99.90;;;;;;2079043;28;20104;-79
2023/12/30 04:11:27;;;;;;;3.83;1.83;;;9.30;99.90;;;;;;2081705;28;20321;-78
2023/12/30 04:12:27;;;;;;;3.85;1.70;;;9.30;99.90;;;;;;2078039;28;20512;-80
2023/12/30 04:13:28;;;;;;;2.55;1.80;;;9.20;99.90;;;;;;2070170;28;20052;-81
2023/12/30 04:14:29;;;;;;;4.38;1.92;;;9.20;99.90;;;;;;2079029;28;20500;-81
2023/12/30 04:15:29;;;;;;;2.67;1.70;;;9.10;99.90;;;;;;2081409;28;20415;-80
2023/12/30 04:16:30;;;;;;;4.15;1.80;;;9.10;99.90;;;;;;2086143;28;20037;-79
2023/12/30 04:17:31;;;;;;;4.32;1.73;;;9.10;99.90;;;;;;2079198;28;20053;-79
2023/12/30 04:18:32;;;;;;;3.00;1.67;;;9.10;99.90;;;;;;2078812;28;20033;-80
2023/12/30 04:19:32;;;;;;;3.30;1.60;;;9.10;99.90;;;;;;2083237;28;20389;-79
2023/12/30 04:20:33;;;;;;;3.95;1.73;;;9.10;99.90;;;;;;2083017;28;20726;-81
2023/12/30 04:21:34;;;;;;;3.50;1.73;;;9.10;99.90;;;;;;2082617;28;20033;-80
2023/12/30 04:22:34;;;;;;;2.63;1.70;;;9.10;99.90;;;;;;2077190;28;20038;-81
2023/12/30 04:23:35;;;;;;;2.47;1.70;;;9.00;99.90;;;;;;2078113;28;20081;-82
2023/12/30 04:24:35;;;;;;;2.15;1.67;;;9.10;99.90;;;;;;2072815;28;20141;-79
2023/12/30 04:25:36;;;;;;;4.03;1.60;;;9.00;99.90;;;;;;2065143;28;20057;-79
2023/12/30 04:26:36;;;;;;;2.20;1.65;;;9.00;99.90;;;;;;2067963;28;20083;-80
2023/12/30 04:27:37;;;;;;;4.15;1.70;;;9.00;99.90;;;;;;2069385;28;20026;-79
2023/12/30 04:28:38;;;;;;;4.57;1.98;;;9.00;99.90;;;;;;2075174;28;20021;-79
2023/12/30 04:29:38;;;;;;;2.83;1.55;;;8.90;99.90;;;;;;2078438;28;20041;-79
2023/12/30 04:30:39;;;;;;;4.40;1.60;;;8.90;99.90;;;;;;2069746;28;20022;-79
2023/12/30 04:31:39;;;;;;;1.77;1.40;;;8.80;99.90;;;;;;2069377;28;20022;-80
2023/12/30 04:32:40;;;;;;;2.03;1.27;;;8.90;99.90;;;;;;2071734;28;20432;-79
2023/12/30 04:33:40;;;;;;;3.28;1.40;;;8.90;99.90;;;;;;2069461;28;20034;-78
2023/12/30 04:34:41;;;;;;;2.75;1.50;;;8.90;99.90;;;;;;2078926;28;20527;-79
2023/12/30 04:35:41;;;;;;;3.17;1.30;;;8.90;99.90;;;;;;2071987;28;20523;-80
2023/12/30 04:36:42;;;;;;;2.78;1.23;;;8.90;99.90;;;;;;2078161;28;20048;-79
2023/12/30 04:37:42;;;;;;;1.58;1.25;;;8.90;99.90;;;;;;2069665;28;20038;-79
2023/12/30 04:38:43;;;;;;;1.73;1.20;;;8.90;99.90;;;;;;2079933;28;20030;-81
2023/12/30 04:39:43;;;;;;;1.75;1.30;;;8.90;99.90;;;;;;2071290;28;20030;-79
2023/12/30 04:40:44;;;;;;;3.38;1.27;;;8.90;99.90;;;;;;2073342;28;20029;-80
2023/12/30 04:41:45;;;;;;;2.05;1.30;;;8.80;99.90;;;;;;2077644;28;20104;-79
2023/12/30 04:42:45;;;;;;;2.38;1.30;;;8.80;99.90;;;;;;2078813;28;20035;-80
2023/12/30 04:43:46;;;;;;;1.60;1.10;;;8.80;99.90;;;;;;2077464;28;20025;-81
2023/12/30 04:44:46;;;;;;;1.77;1.20;;;8.90;99.90;;;;;;2079246;28;20021;-80
2023/12/30 04:45:47;;;;;;;1.55;1.20;;;8.90;99.90;;;;;;2071651;28;20022;-82
2023/12/30 04:46:48;;;;;;;2.97;1.10;;;8.90;99.90;;;;;;2065226;28;20018;-81
2023/12/30 04:47:48;;;;;;;1.95;1.20;;;8.90;99.90;;;;;;2079484;28;20013;-81
2023/12/30 04:48:52;;;;;;;1.95;1.20;;;8.90;99.90;;;;;;2080357;28;20026;-82
2023/12/30 04:49:53;;;;;;;1.85;1.10;;;8.90;99.90;;;;;;2078578;28;20563;-81
2023/12/30 04:50:53;;;;;;;1.50;1.20;;;8.90;99.90;;;;;;2078627;28;20052;-81
2023/12/30 04:51:54;;;;;;;2.58;1.30;;;8.90;99.90;;;;;;2089536;28;20434;-81
2023/12/30 04:52:55;;;;;;;1.67;1.13;;;8.90;99.90;;;;;;2080433;28;20013;-80
2023/12/30 04:53:56;;;;;;;2.03;1.30;;;8.80;99.90;;;;;;2083329;28;20073;-80
2023/12/30 04:54:56;;;;;;;2.38;1.40;;;8.80;99.90;;;;;;2077447;28;20746;-81
2023/12/30 04:55:58;;;;;;;4.60;1.30;;;8.80;99.90;;;;;;2073036;28;20022;-80
2023/12/30 04:56:58;;;;;;;1.65;1.50;;;8.70;99.90;;;;;;2072502;28;20050;-79
2023/12/30 04:58:00;;;;;;;2.30;1.40;;;8.60;99.90;;;;;;2075121;28;20049;-81
2023/12/30 04:59:01;;;;;;;1.83;1.30;;;8.60;99.90;;;;;;2082435;28;20032;-81
2023/12/30 05:00:04;;;;;;;1.77;1.20;;;8.60;99.90;;;;;;2079505;28;20052;-79
2023/12/30 05:01:04;;;;;;;2.38;1.38;;;8.50;99.90;;;;;;2075385;28;20026;-80
2023/12/30 05:02:05;;;;;;;1.85;1.30;;;8.50;99.90;;;;;;2084210;28;20079;-79
2023/12/30 05:03:06;;;;;;;1.38;1.27;;;8.50;99.90;;;;;;2081932;28;20044;-79
2023/12/30 05:04:06;;;;;;;2.67;1.50;;;8.40;99.90;;;;;;2070562;28;20029;-80
2023/12/30 05:05:08;;;;;;;2.45;1.30;;;8.40;99.90;;;;;;2074998;28;20026;-81
2023/12/30 05:06:18;;;;;;;3.70;1.30;;;8.40;99.90;;;;;;2071869;28;20037;-79
2023/12/30 05:07:19;;;;;;;2.05;1.30;;;8.30;99.90;;;;;;2078415;28;20029;-81
2023/12/30 05:08:19;;;;;;;1.58;1.25;;;8.30;99.90;;;;;;2083465;28;20029;-81
2023/12/30 05:09:20;;;;;;;3.47;1.30;;;8.30;99.90;;;;;;2067278;28;20057;-81
2023/12/30 05:10:21;;;;;;;1.77;1.40;;;8.30;99.90;;;;;;2063685;28;20042;-78
2023/12/30 05:11:24;;;;;;;2.10;1.40;;;8.30;99.90;;;;;;2069758;28;20105;-79
2023/12/30 05:12:25;;;;;;;2.20;1.20;;;8.20;99.90;;;;;;2082529;28;20529;-82
2023/12/30 05:13:25;;;;;;;3.10;1.30;;;8.30;99.90;;;;;;2073474;28;20048;-80
2023/12/30 05:14:26;;;;;;;3.25;1.40;;;8.30;99.90;;;;;;2073115;28;20038;-80
2023/12/30 05:15:27;;;;;;;2.45;1.23;;;8.20;99.90;;;;;;2080258;28;20041;-80
2023/12/30 05:16:27;;;;;;;1.10;1.00;;;8.30;99.90;;;;;;2077832;28;20395;-81
2023/12/30 05:17:31;;;;;;;1.63;1.30;;;8.30;99.90;;;;;;2062502;28;20702;-82
2023/12/30 05:18:32;;;;;;;1.77;1.08;;;8.30;99.90;;;;;;2070497;28;20083;-81
2023/12/30 05:19:32;;;;;;;2.67;1.30;;;8.40;99.90;;;;;;2079479;28;20038;-81